sensor_id;sensor_type;location;lat;lon;timestamp;temperature;humidity
39525;DHT22;25203;50.754;6.978;2023-04-03T00:01:29;3.10;99.90
39525;DHT22;25203;50.754;6.978;2023-04-03T00:03:30;3.20;99.90
39525;DHT22;25203;50.754;6.978;2023-04-03T00:05:30;3.20;99.90
39525;DHT22;25203;50.754;6.978;2023-04-03T00:07:31;3.20;99.90
39525;DHT22;25203;50.754;6.978;2023-04-03T00:09:31;3.30;99.90
39525;DHT22;25203;50.754;6.978;2023-04-03T00:11:32;3.30;99.90
39525;DHT22;25203;50.754;6.978;2023-04-03T00:13:33;3.30;99.90
39525;DHT22;25203;50.754;6.978;2023-04-03T00:15:35;3.30;99.90
39525;DHT22;25203;50.754;6.978;2023-04-03T00:17:35;3.40;99.90
39525;DHT22;25203;50.754;6.978;2023-04-03T00:19:36;3.40;99.90
39525;DHT22;25203;50.754;6.978;2023-04-03T00:21:37;3.50;99.90
39525;DHT22;25203;50.754;6.978;2023-04-03T00:23:37;3.50;99.90
39525;DHT22;25203;50.754;6.978;2023-04-03T00:25:38;3.60;99.90
39525;DHT22;25203;50.754;6.978;2023-04-03T00:27:39;3.60;99.90
39525;DHT22;25203;50.754;6.978;2023-04-03T00:29:40;3.60;99.90
39525;DHT22;25203;50.754;6.978;2023-04-03T00:31:40;3.70;99.90
39525;DHT22;25203;50.754;6.978;2023-04-03T00:33:41;3.70;99.90
39525;DHT22;25203;50.754;6.978;2023-04-03T00:35:42;3.60;99.90
39525;DHT22;25203;50.754;6.978;2023-04-03T00:37:43;3.60;99.90
39525;DHT22;25203;50.754;6.978;2023-04-03T00:39:43;3.60;99.90
39525;DHT22;25203;50.754;6.978;2023-04-03T00:41:44;3.60;99.90
39525;DHT22;25203;50.754;6.978;2023-04-03T00:43:44;3.60;99.90
39525;DHT22;25203;50.754;6.978;2023-04-03T00:45:47;3.70;99.90
39525;DHT22;25203;50.754;6.978;2023-04-03T00:47:48;3.70;99.90
39525;DHT22;25203;50.754;6.978;2023-04-03T00:49:50;3.70;99.90
39525;DHT22;25203;50.754;6.978;2023-04-03T00:51:52;3.70;99.90
39525;DHT22;25203;50.754;6.978;2023-04-03T00:53:58;3.70;99.90
39525;DHT22;25203;50.754;6.978;2023-04-03T00:56:01;3.70;99.90
39525;DHT22;25203;50.754;6.978;2023-04-03T00:58:03;3.80;99.90
39525;DHT22;25203;50.754;6.978;2023-04-03T01:00:08;3.80;99.90
39525;DHT22;25203;50.754;6.978;2023-04-03T01:02:09;3.80;99.90
39525;DHT22;25203;50.754;6.978;2023-04-03T01:04:33;3.80;99.90
39525;DHT22;25203;50.754;6.978;2023-04-03T01:06:36;3.70;99.90
39525;DHT22;25203;50.754;6.978;2023-04-03T01:08:37;3.80;99.90
39525;DHT22;25203;50.754;6.978;2023-04-03T01:10:38;3.80;99.90
39525;DHT22;25203;50.754;6.978;2023-04-03T01:12:41;3.80;99.90
39525;DHT22;25203;50.754;6.978;2023-04-03T01:14:46;3.70;99.90
39525;DHT22;25203;50.754;6.978;2023-04-03T01:16:53;3.70;99.90
39525;DHT22;25203;50.754;6.978;2023-04-03T01:18:54;3.70;99.90
39525;DHT22;25203;50.754;6.978;2023-04-03T01:23:21;3.60;99.90
39525;DHT22;25203;50.754;6.978;2023-04-03T01:25:23;3.50;99.90
39525;DHT22;25203;50.754;6.978;2023-04-03T01:27:24;3.50;99.90
39525;DHT22;25203;50.754;6.978;2023-04-03T01:29:25;3.50;99.90
39525;DHT22;25203;50.754;6.978;2023-04-03T01:31:31;3.40;99.90
39525;DHT22;25203;50.754;6.978;2023-04-03T01:33:33;3.40;99.90
39525;DHT22;25203;50.754;6.978;2023-04-03T01:35:33;3.40;99.90
39525;DHT22;25203;50.754;6.978;2023-04-03T01:37:34;3.30;99.90
39525;DHT22;25203;50.754;6.978;2023-04-03T01:39:35;3.40;99.90
39525;DHT22;25203;50.754;6.978;2023-04-03T01:41:35;3.30;99.90
39525;DHT22;25203;50.754;6.978;2023-04-03T01:43:36;3.30;99.90
39525;DHT22;25203;50.754;6.978;2023-04-03T01:45:37;3.30;99.90
39525;DHT22;25203;50.754;6.978;2023-04-03T01:47:37;3.30;99.90
39525;DHT22;25203;50.754;6.978;2023-04-03T01:49:38;3.20;99.90
39525;DHT22;25203;50.754;6.978;2023-04-03T01:51:38;3.20;99.90
39525;DHT22;25203;50.754;6.978;2023-04-03T01:53:39;3.20;99.90
39525;DHT22;25203;50.754;6.978;2023-04-03T01:55:40;3.20;99.90
39525;DHT22;25203;50.754;6.978;2023-04-03T01:57:40;3.20;99.90
39525;DHT22;25203;50.754;6.978;2023-04-03T01:59:41;3.10;99.90
39525;DHT22;25203;50.754;6.978;2023-04-03T02:01:42;3.10;99.90
39525;DHT22;25203;50.754;6.978;2023-04-03T02:03:43;3.00;99.90
39525;DHT22;25203;50.754;6.978;2023-04-03T02:05:44;3.00;99.90
39525;DHT22;25203;50.754;6.978;2023-04-03T02:07:45;3.00;99.90
39525;DHT22;25203;50.754;6.978;2023-04-03T02:09:46;2.90;99.90
39525;DHT22;25203;50.754;6.978;2023-04-03T02:11:46;2.80;99.90
39525;DHT22;25203;50.754;6.978;2023-04-03T02:13:47;2.80;99.90
39525;DHT22;25203;50.754;6.978;2023-04-03T02:15:48;2.70;99.90
39525;DHT22;25203;50.754;6.978;2023-04-03T02:17:48;2.70;99.90
39525;DHT22;25203;50.754;6.978;2023-04-03T02:19:49;2.70;99.90
39525;DHT22;25203;50.754;6.978;2023-04-03T02:21:49;2.60;99.90
39525;DHT22;25203;50.754;6.978;2023-04-03T02:23:50;2.60;99.90
39525;DHT22;25203;50.754;6.978;2023-04-03T02:25:50;2.60;99.90
39525;DHT22;25203;50.754;6.978;2023-04-03T02:27:51;2.50;99.90
39525;DHT22;25203;50.754;6.978;2023-04-03T02:29:52;2.40;99.90
39525;DHT22;25203;50.754;6.978;2023-04-03T02:31:52;2.40;99.90
39525;DHT22;25203;50.754;6.978;2023-04-03T02:33:53;2.30;99.90
39525;DHT22;25203;50.754;6.978;2023-04-03T02:35:57;2.30;99.90
39525;DHT22;25203;50.754;6.978;2023-04-03T02:37:58;2.30;99.90
39525;DHT22;25203;50.754;6.978;2023-04-03T02:39:58;2.30;99.90
39525;DHT22;25203;50.754;6.978;2023-04-03T02:41:59;2.40;99.90
39525;DHT22;25203;50.754;6.978;2023-04-03T02:44:01;2.40;99.90
39525;DHT22;25203;50.754;6.978;2023-04-03T02:46:02;2.40;99.90
39525;DHT22;25203;50.754;6.978;2023-04-03T02:48:03;2.40;99.90
39525;DHT22;25203;50.754;6.978;2023-04-03T02:50:04;2.30;99.90
39525;DHT22;25203;50.754;6.978;2023-04-03T02:52:05;2.30;99.90
39525;DHT22;25203;50.754;6.978;2023-04-03T02:54:05;2.30;99.90
39525;DHT22;25203;50.754;6.978;2023-04-03T02:56:06;2.30;99.90
39525;DHT22;25203;50.754;6.978;2023-04-03T02:58:07;2.30;99.90
39525;DHT22;25203;50.754;6.978;2023-04-03T03:00:08;2.20;99.90
39525;DHT22;25203;50.754;6.978;2023-04-03T03:02:10;2.20;99.90
39525;DHT22;25203;50.754;6.978;2023-04-03T03:04:11;2.20;99.90
39525;DHT22;25203;50.754;6.978;2023-04-03T03:06:14;2.10;99.90
39525;DHT22;25203;50.754;6.978;2023-04-03T03:08:15;2.10;99.90
39525;DHT22;25203;50.754;6.978;2023-04-03T03:10:16;2.00;99.90
39525;DHT22;25203;50.754;6.978;2023-04-03T03:12:16;1.90;99.90
39525;DHT22;25203;50.754;6.978;2023-04-03T03:14:21;1.90;99.90
39525;DHT22;25203;50.754;6.978;2023-04-03T03:16:22;1.90;99.90
39525;DHT22;25203;50.754;6.978;2023-04-03T03:18:23;1.80;99.90
39525;DHT22;25203;50.754;6.978;2023-04-03T03:20:23;1.70;99.90
39525;DHT22;25203;50.754;6.978;2023-04-03T03:22:24;1.70;99.90
39525;DHT22;25203;50.754;6.978;2023-04-03T03:24:25;1.70;99.90
39525;DHT22;25203;50.754;6.978;2023-04-03T03:26:25;1.60;99.90
39525;DHT22;25203;50.754;6.978;2023-04-03T03:28:27;1.60;99.90
39525;DHT22;25203;50.754;6.978;2023-04-03T03:30:27;1.50;99.90
39525;DHT22;25203;50.754;6.978;2023-04-03T03:32:28;1.50;99.90
39525;DHT22;25203;50.754;6.978;2023-04-03T03:34:28;1.50;99.90
39525;DHT22;25203;50.754;6.978;2023-04-03T03:36:29;1.50;99.90
39525;DHT22;25203;50.754;6.978;2023-04-03T03:38:29;1.50;99.90
39525;DHT22;25203;50.754;6.978;2023-04-03T03:40:30;1.50;99.90
39525;DHT22;25203;50.754;6.978;2023-04-03T03:42:31;1.60;99.90
39525;DHT22;25203;50.754;6.978;2023-04-03T03:44:31;1.60;99.90
39525;DHT22;25203;50.754;6.978;2023-04-03T03:46:32;1.60;99.90
39525;DHT22;25203;50.754;6.978;2023-04-03T03:48:33;1.60;99.90
39525;DHT22;25203;50.754;6.978;2023-04-03T03:50:33;1.60;99.90
39525;DHT22;25203;50.754;6.978;2023-04-03T03:52:34;1.50;99.90
39525;DHT22;25203;50.754;6.978;2023-04-03T03:54:35;1.50;99.90
39525;DHT22;25203;50.754;6.978;2023-04-03T03:56:35;1.50;99.90
39525;DHT22;25203;50.754;6.978;2023-04-03T03:58:36;1.40;99.90
39525;DHT22;25203;50.754;6.978;2023-04-03T04:00:37;1.30;99.90
39525;DHT22;25203;50.754;6.978;2023-04-03T04:02:37;1.30;99.90
39525;DHT22;25203;50.754;6.978;2023-04-03T04:04:38;1.20;99.90
39525;DHT22;25203;50.754;6.978;2023-04-03T04:06:38;1.10;99.90
39525;DHT22;25203;50.754;6.978;2023-04-03T04:08:39;1.10;99.90
39525;DHT22;25203;50.754;6.978;2023-04-03T04:10:40;1.00;99.90
39525;DHT22;25203;50.754;6.978;2023-04-03T04:12:40;0.90;99.90
39525;DHT22;25203;50.754;6.978;2023-04-03T04:14:41;0.90;99.90
39525;DHT22;25203;50.754;6.978;2023-04-03T04:16:42;0.90;99.90
39525;DHT22;25203;50.754;6.978;2023-04-03T04:18:42;0.90;99.90
39525;DHT22;25203;50.754;6.978;2023-04-03T04:20:45;0.90;99.90
39525;DHT22;25203;50.754;6.978;2023-04-03T04:22:46;0.90;99.90
39525;DHT22;25203;50.754;6.978;2023-04-03T04:24:46;0.90;99.90
39525;DHT22;25203;50.754;6.978;2023-04-03T04:26:47;0.90;99.90
39525;DHT22;25203;50.754;6.978;2023-04-03T04:28:47;0.90;99.90
39525;DHT22;25203;50.754;6.978;2023-04-03T04:30:48;0.90;99.90
39525;DHT22;25203;50.754;6.978;2023-04-03T04:32:48;0.80;99.90
39525;DHT22;25203;50.754;6.978;2023-04-03T04:34:49;0.80;99.90
39525;DHT22;25203;50.754;6.978;2023-04-03T04:36:50;0.60;99.90
39525;DHT22;25203;50.754;6.978;2023-04-03T04:38:51;0.60;99.90
39525;DHT22;25203;50.754;6.978;2023-04-03T04:40:53;0.50;99.90
39525;DHT22;25203;50.754;6.978;2023-04-03T04:42:53;0.40;99.90
39525;DHT22;25203;50.754;6.978;2023-04-03T04:44:54;0.40;99.90
39525;DHT22;25203;50.754;6.978;2023-04-03T04:46:55;0.40;99.90
39525;DHT22;25203;50.754;6.978;2023-04-03T04:48:55;0.40;99.90
39525;DHT22;25203;50.754;6.978;2023-04-03T04:50:56;0.40;99.90
39525;DHT22;25203;50.754;6.978;2023-04-03T04:52:57;0.50;99.90
39525;DHT22;25203;50.754;6.978;2023-04-03T04:54:57;0.50;99.90
39525;DHT22;25203;50.754;6.978;2023-04-03T04:56:58;0.60;99.90
39525;DHT22;25203;50.754;6.978;2023-04-03T04:58:59;0.60;99.90
39525;DHT22;25203;50.754;6.978;2023-04-03T05:01:04;0.60;99.90
39525;DHT22;25203;50.754;6.978;2023-04-03T05:03:05;0.60;99.90
39525;DHT22;25203;50.754;6.978;2023-04-03T05:05:06;0.60;99.90
39525;DHT22;25203;50.754;6.978;2023-04-03T05:07:07;0.60;99.90
39525;DHT22;25203;50.754;6.978;2023-04-03T05:09:08;0.60;99.90
39525;DHT22;25203;50.754;6.978;2023-04-03T05:11:10;0.60;99.90
39525;DHT22;25203;50.754;6.978;2023-04-03T05:13:10;0.60;99.90
39525;DHT22;25203;50.754;6.978;2023-04-03T05:15:11;0.60;99.90
39525;DHT22;25203;50.754;6.978;2023-04-03T05:17:12;0.60;99.90
39525;DHT22;25203;50.754;6.978;2023-04-03T05:19:12;0.60;99.90
39525;DHT22;25203;50.754;6.978;2023-04-03T05:21:13;0.60;99.90
39525;DHT22;25203;50.754;6.978;2023-04-03T05:23:14;0.60;99.90
39525;DHT22;25203;50.754;6.978;2023-04-03T05:25:14;0.60;99.90
39525;DHT22;25203;50.754;6.978;2023-04-03T05:27:15;0.50;99.90
39525;DHT22;25203;50.754;6.978;2023-04-03T05:29:17;0.60;99.90
39525;DHT22;25203;50.754;6.978;2023-04-03T05:31:17;0.60;99.90
39525;DHT22;25203;50.754;6.978;2023-04-03T05:33:18;0.60;99.90
39525;DHT22;25203;50.754;6.978;2023-04-03T05:35:18;0.60;99.90
39525;DHT22;25203;50.754;6.978;2023-04-03T05:37:19;0.60;99.90
39525;DHT22;25203;50.754;6.978;2023-04-03T05:39:20;0.60;99.90
39525;DHT22;25203;50.754;6.978;2023-04-03T05:41:23;0.60;99.90
39525;DHT22;25203;50.754;6.978;2023-04-03T05:43:24;0.60;99.90
39525;DHT22;25203;50.754;6.978;2023-04-03T05:45:24;0.70;99.90
39525;DHT22;25203;50.754;6.978;2023-04-03T05:47:25;0.70;99.90
39525;DHT22;25203;50.754;6.978;2023-04-03T05:49:25;0.70;99.90
39525;DHT22;25203;50.754;6.978;2023-04-03T05:51:32;0.80;99.90
39525;DHT22;25203;50.754;6.978;2023-04-03T05:53:35;0.80;99.90
39525;DHT22;25203;50.754;6.978;2023-04-03T05:55:39;0.90;99.90
39525;DHT22;25203;50.754;6.978;2023-04-03T05:57:40;1.00;99.90
39525;DHT22;25203;50.754;6.978;2023-04-03T05:59:40;1.00;99.90
39525;DHT22;25203;50.754;6.978;2023-04-03T06:01:41;1.10;99.90
39525;DHT22;25203;50.754;6.978;2023-04-03T06:03:42;1.20;99.90
39525;DHT22;25203;50.754;6.978;2023-04-03T06:05:42;1.20;99.90
39525;DHT22;25203;50.754;6.978;2023-04-03T06:07:43;1.20;99.90
39525;DHT22;25203;50.754;6.978;2023-04-03T06:09:44;1.30;99.90
39525;DHT22;25203;50.754;6.978;2023-04-03T06:11:46;1.30;99.90
39525;DHT22;25203;50.754;6.978;2023-04-03T06:13:46;1.40;99.90
39525;DHT22;25203;50.754;6.978;2023-04-03T06:15:48;1.50;99.90
39525;DHT22;25203;50.754;6.978;2023-04-03T06:17:48;1.50;99.90
39525;DHT22;25203;50.754;6.978;2023-04-03T06:19:49;1.60;99.90
39525;DHT22;25203;50.754;6.978;2023-04-03T06:21:50;1.60;99.90
39525;DHT22;25203;50.754;6.978;2023-04-03T06:23:50;1.70;99.90
39525;DHT22;25203;50.754;6.978;2023-04-03T06:25:51;1.90;99.90
39525;DHT22;25203;50.754;6.978;2023-04-03T06:27:52;2.00;99.90
39525;DHT22;25203;50.754;6.978;2023-04-03T06:29:55;2.10;99.90
39525;DHT22;25203;50.754;6.978;2023-04-03T06:31:56;2.20;99.90
39525;DHT22;25203;50.754;6.978;2023-04-03T06:33:57;2.30;99.90
39525;DHT22;25203;50.754;6.978;2023-04-03T06:35:58;2.40;99.90
39525;DHT22;25203;50.754;6.978;2023-04-03T06:37:59;2.40;99.90
39525;DHT22;25203;50.754;6.978;2023-04-03T06:40:00;2.50;99.90
39525;DHT22;25203;50.754;6.978;2023-04-03T06:42:00;2.60;99.90
39525;DHT22;25203;50.754;6.978;2023-04-03T06:44:01;2.70;99.90
39525;DHT22;25203;50.754;6.978;2023-04-03T06:46:03;2.80;99.90
39525;DHT22;25203;50.754;6.978;2023-04-03T06:48:04;2.90;99.90
39525;DHT22;25203;50.754;6.978;2023-04-03T06:50:06;3.00;99.90
39525;DHT22;25203;50.754;6.978;2023-04-03T06:52:07;3.10;99.90
39525;DHT22;25203;50.754;6.978;2023-04-03T06:54:08;3.10;99.90
39525;DHT22;25203;50.754;6.978;2023-04-03T06:56:08;3.20;99.90
39525;DHT22;25203;50.754;6.978;2023-04-03T06:58:10;3.40;99.90
39525;DHT22;25203;50.754;6.978;2023-04-03T07:00:11;3.50;99.90
39525;DHT22;25203;50.754;6.978;2023-04-03T07:02:12;4.00;99.90
39525;DHT22;25203;50.754;6.978;2023-04-03T07:04:13;5.10;99.90
39525;DHT22;25203;50.754;6.978;2023-04-03T07:06:15;6.90;99.90
39525;DHT22;25203;50.754;6.978;2023-04-03T07:08:15;8.50;95.70
39525;DHT22;25203;50.754;6.978;2023-04-03T07:10:17;10.10;91.20
39525;DHT22;25203;50.754;6.978;2023-04-03T07:12:17;10.80;84.40
39525;DHT22;25203;50.754;6.978;2023-04-03T07:14:18;10.80;81.70
39525;DHT22;25203;50.754;6.978;2023-04-03T07:16:19;10.70;82.00
39525;DHT22;25203;50.754;6.978;2023-04-03T07:18:20;10.10;82.40
39525;DHT22;25203;50.754;6.978;2023-04-03T07:20:21;9.50;84.70
39525;DHT22;25203;50.754;6.978;2023-04-03T07:22:22;8.90;86.70
39525;DHT22;25203;50.754;6.978;2023-04-03T07:24:23;8.40;88.80
39525;DHT22;25203;50.754;6.978;2023-04-03T07:26:23;8.10;90.20
39525;DHT22;25203;50.754;6.978;2023-04-03T07:28:24;7.90;90.70
39525;DHT22;25203;50.754;6.978;2023-04-03T07:30:26;8.20;91.70
39525;DHT22;25203;50.754;6.978;2023-04-03T07:32:26;8.10;90.10
39525;DHT22;25203;50.754;6.978;2023-04-03T07:34:27;8.30;91.20
39525;DHT22;25203;50.754;6.978;2023-04-03T07:36:28;8.90;92.10
39525;DHT22;25203;50.754;6.978;2023-04-03T07:38:29;10.00;90.00
39525;DHT22;25203;50.754;6.978;2023-04-03T07:40:30;11.10;87.10
39525;DHT22;25203;50.754;6.978;2023-04-03T07:42:30;12.90;80.30
39525;DHT22;25203;50.754;6.978;2023-04-03T07:44:31;14.70;72.40
39525;DHT22;25203;50.754;6.978;2023-04-03T07:46:32;16.10;67.20
39525;DHT22;25203;50.754;6.978;2023-04-03T07:48:33;16.80;63.70
39525;DHT22;25203;50.754;6.978;2023-04-03T07:50:35;17.50;62.30
39525;DHT22;25203;50.754;6.978;2023-04-03T07:52:36;18.40;58.50
39525;DHT22;25203;50.754;6.978;2023-04-03T07:54:37;18.90;56.20
39525;DHT22;25203;50.754;6.978;2023-04-03T07:56:37;19.20;55.10
39525;DHT22;25203;50.754;6.978;2023-04-03T07:58:38;18.90;54.70
39525;DHT22;25203;50.754;6.978;2023-04-03T08:00:39;19.30;53.60
39525;DHT22;25203;50.754;6.978;2023-04-03T08:02:40;19.50;53.40
39525;DHT22;25203;50.754;6.978;2023-04-03T08:04:41;20.00;51.90
39525;DHT22;25203;50.754;6.978;2023-04-03T08:06:41;19.80;51.60
39525;DHT22;25203;50.754;6.978;2023-04-03T08:08:42;19.60;51.70
39525;DHT22;25203;50.754;6.978;2023-04-03T08:10:43;20.00;52.40
39525;DHT22;25203;50.754;6.978;2023-04-03T08:12:46;20.80;50.50
39525;DHT22;25203;50.754;6.978;2023-04-03T08:14:47;21.00;51.00
39525;DHT22;25203;50.754;6.978;2023-04-03T08:16:48;20.90;50.20
39525;DHT22;25203;50.754;6.978;2023-04-03T08:18:49;21.40;50.10
39525;DHT22;25203;50.754;6.978;2023-04-03T08:20:51;22.00;48.60
39525;DHT22;25203;50.754;6.978;2023-04-03T08:22:52;21.70;47.80
39525;DHT22;25203;50.754;6.978;2023-04-03T08:24:52;21.50;48.30
39525;DHT22;25203;50.754;6.978;2023-04-03T08:26:53;21.70;48.70
39525;DHT22;25203;50.754;6.978;2023-04-03T08:28:53;22.00;48.00
39525;DHT22;25203;50.754;6.978;2023-04-03T08:30:54;22.00;47.60
39525;DHT22;25203;50.754;6.978;2023-04-03T08:32:55;22.00;48.40
39525;DHT22;25203;50.754;6.978;2023-04-03T08:34:55;22.70;47.50
39525;DHT22;25203;50.754;6.978;2023-04-03T08:36:56;23.10;46.50
39525;DHT22;25203;50.754;6.978;2023-04-03T08:38:57;23.30;45.20
39525;DHT22;25203;50.754;6.978;2023-04-03T08:41:13;23.20;44.90
39525;DHT22;25203;50.754;6.978;2023-04-03T08:43:36;22.20;45.40
39525;DHT22;25203;50.754;6.978;2023-04-03T08:45:51;22.20;45.70
39525;DHT22;25203;50.754;6.978;2023-04-03T08:48:03;22.00;44.80
39525;DHT22;25203;50.754;6.978;2023-04-03T08:50:20;22.60;45.80
39525;DHT22;25203;50.754;6.978;2023-04-03T08:52:38;22.40;45.40
39525;DHT22;25203;50.754;6.978;2023-04-03T08:54:51;22.70;45.40
39525;DHT22;25203;50.754;6.978;2023-04-03T08:56:53;22.40;44.90
39525;DHT22;25203;50.754;6.978;2023-04-03T08:59:04;22.30;45.00
39525;DHT22;25203;50.754;6.978;2023-04-03T09:01:16;21.70;45.50
39525;DHT22;25203;50.754;6.978;2023-04-03T09:03:19;21.10;44.80
39525;DHT22;25203;50.754;6.978;2023-04-03T09:07:42;21.30;45.80
39525;DHT22;25203;50.754;6.978;2023-04-03T09:09:44;22.00;44.60
39525;DHT22;25203;50.754;6.978;2023-04-03T09:14:17;22.30;44.10
39525;DHT22;25203;50.754;6.978;2023-04-03T09:17:00;21.60;44.00
39525;DHT22;25203;50.754;6.978;2023-04-03T09:19:18;21.00;44.20
39525;DHT22;25203;50.754;6.978;2023-04-03T09:21:32;20.40;44.80
39525;DHT22;25203;50.754;6.978;2023-04-03T09:25:38;18.90;44.50
39525;DHT22;25203;50.754;6.978;2023-04-03T09:27:39;18.60;46.90
39525;DHT22;25203;50.754;6.978;2023-04-03T09:29:43;18.80;46.70
39525;DHT22;25203;50.754;6.978;2023-04-03T09:31:46;19.00;45.70
39525;DHT22;25203;50.754;6.978;2023-04-03T09:33:54;19.40;46.10
39525;DHT22;25203;50.754;6.978;2023-04-03T09:35:55;19.80;45.70
39525;DHT22;25203;50.754;6.978;2023-04-03T09:38:14;20.00;45.50
39525;DHT22;25203;50.754;6.978;2023-04-03T09:40:35;20.40;45.00
39525;DHT22;25203;50.754;6.978;2023-04-03T09:42:40;20.60;45.10
39525;DHT22;25203;50.754;6.978;2023-04-03T09:44:42;21.00;44.80
39525;DHT22;25203;50.754;6.978;2023-04-03T09:46:44;21.50;44.40
39525;DHT22;25203;50.754;6.978;2023-04-03T09:48:56;21.40;44.00
39525;DHT22;25203;50.754;6.978;2023-04-03T09:51:01;21.20;44.50
39525;DHT22;25203;50.754;6.978;2023-04-03T09:53:35;21.00;43.80
39525;DHT22;25203;50.754;6.978;2023-04-03T09:55:43;20.80;43.60
39525;DHT22;25203;50.754;6.978;2023-04-03T09:57:45;20.40;44.10
39525;DHT22;25203;50.754;6.978;2023-04-03T09:59:57;20.40;44.10
39525;DHT22;25203;50.754;6.978;2023-04-03T10:02:34;20.30;44.50
39525;DHT22;25203;50.754;6.978;2023-04-03T10:04:40;20.30;44.70
39525;DHT22;25203;50.754;6.978;2023-04-03T10:06:46;20.80;43.40
39525;DHT22;25203;50.754;6.978;2023-04-03T10:09:05;20.10;44.30
39525;DHT22;25203;50.754;6.978;2023-04-03T10:13:20;20.30;44.50
39525;DHT22;25203;50.754;6.978;2023-04-03T10:15:25;20.70;43.50
39525;DHT22;25203;50.754;6.978;2023-04-03T10:18:05;20.90;42.80
39525;DHT22;25203;50.754;6.978;2023-04-03T10:23:00;20.90;42.40
39525;DHT22;25203;50.754;6.978;2023-04-03T10:25:10;20.90;42.60
39525;DHT22;25203;50.754;6.978;2023-04-03T10:30:00;21.20;43.10
39525;DHT22;25203;50.754;6.978;2023-04-03T10:36:38;21.40;43.20
39525;DHT22;25203;50.754;6.978;2023-04-03T10:41:02;20.50;42.40
39525;DHT22;25203;50.754;6.978;2023-04-03T10:43:15;20.70;42.60
39525;DHT22;25203;50.754;6.978;2023-04-03T10:45:28;20.60;43.20
39525;DHT22;25203;50.754;6.978;2023-04-03T10:48:02;20.70;43.10
39525;DHT22;25203;50.754;6.978;2023-04-03T10:52:24;21.00;42.60
39525;DHT22;25203;50.754;6.978;2023-04-03T10:54:49;21.60;42.60
39525;DHT22;25203;50.754;6.978;2023-04-03T10:57:03;21.00;41.60
39525;DHT22;25203;50.754;6.978;2023-04-03T10:59:25;20.20;42.20
39525;DHT22;25203;50.754;6.978;2023-04-03T11:01:32;21.00;42.70
39525;DHT22;25203;50.754;6.978;2023-04-03T11:03:46;21.30;42.20
39525;DHT22;25203;50.754;6.978;2023-04-03T11:05:50;21.50;42.10
39525;DHT22;25203;50.754;6.978;2023-04-03T11:07:53;21.70;41.40
39525;DHT22;25203;50.754;6.978;2023-04-03T11:09:58;21.00;41.60
39525;DHT22;25203;50.754;6.978;2023-04-03T11:12:14;20.80;42.00
39525;DHT22;25203;50.754;6.978;2023-04-03T11:14:33;20.40;41.70
39525;DHT22;25203;50.754;6.978;2023-04-03T11:16:50;20.80;41.90
39525;DHT22;25203;50.754;6.978;2023-04-03T11:19:08;21.10;42.10
39525;DHT22;25203;50.754;6.978;2023-04-03T11:23:57;20.60;41.70
39525;DHT22;25203;50.754;6.978;2023-04-03T11:26:11;19.80;41.90
39525;DHT22;25203;50.754;6.978;2023-04-03T11:28:13;19.40;42.00
39525;DHT22;25203;50.754;6.978;2023-04-03T11:30:19;19.20;42.80
39525;DHT22;25203;50.754;6.978;2023-04-03T11:34:53;19.80;42.60
39525;DHT22;25203;50.754;6.978;2023-04-03T11:37:00;20.30;42.10
39525;DHT22;25203;50.754;6.978;2023-04-03T11:39:29;19.80;41.90
39525;DHT22;25203;50.754;6.978;2023-04-03T11:41:30;19.50;42.20
39525;DHT22;25203;50.754;6.978;2023-04-03T11:43:32;19.40;41.20
39525;DHT22;25203;50.754;6.978;2023-04-03T11:45:49;18.20;41.80
39525;DHT22;25203;50.754;6.978;2023-04-03T11:47:54;17.80;42.90
39525;DHT22;25203;50.754;6.978;2023-04-03T11:49:57;17.70;42.70
39525;DHT22;25203;50.754;6.978;2023-04-03T11:51:59;17.50;42.90
39525;DHT22;25203;50.754;6.978;2023-04-03T11:54:52;17.10;43.60
39525;DHT22;25203;50.754;6.978;2023-04-03T11:56:46;17.30;43.20
39525;DHT22;25203;50.754;6.978;2023-04-03T12:01:06;16.30;43.80
39525;DHT22;25203;50.754;6.978;2023-04-03T12:05:27;15.70;44.50
39525;DHT22;25203;50.754;6.978;2023-04-03T12:07:28;15.30;43.80
39525;DHT22;25203;50.754;6.978;2023-04-03T12:09:35;14.60;45.40
39525;DHT22;25203;50.754;6.978;2023-04-03T12:11:56;14.20;46.00
39525;DHT22;25203;50.754;6.978;2023-04-03T12:15:57;14.50;46.30
39525;DHT22;25203;50.754;6.978;2023-04-03T12:20:58;14.70;46.80
39525;DHT22;25203;50.754;6.978;2023-04-03T12:25:51;14.80;46.70
39525;DHT22;25203;50.754;6.978;2023-04-03T12:27:52;14.70;46.00
39525;DHT22;25203;50.754;6.978;2023-04-03T12:30:13;14.40;47.90
39525;DHT22;25203;50.754;6.978;2023-04-03T12:44:49;14.40;48.20
39525;DHT22;25203;50.754;6.978;2023-04-03T12:47:00;14.20;47.60
39525;DHT22;25203;50.754;6.978;2023-04-03T12:49:01;14.20;47.10
39525;DHT22;25203;50.754;6.978;2023-04-03T12:51:02;14.00;47.40
39525;DHT22;25203;50.754;6.978;2023-04-03T12:55:17;13.00;47.90
39525;DHT22;25203;50.754;6.978;2023-04-03T12:57:24;12.90;48.80
39525;DHT22;25203;50.754;6.978;2023-04-03T12:59:26;12.80;48.10
39525;DHT22;25203;50.754;6.978;2023-04-03T13:01:27;12.60;47.70
39525;DHT22;25203;50.754;6.978;2023-04-03T13:03:28;12.70;47.30
39525;DHT22;25203;50.754;6.978;2023-04-03T13:05:30;12.90;47.80
39525;DHT22;25203;50.754;6.978;2023-04-03T13:07:33;12.90;47.20
39525;DHT22;25203;50.754;6.978;2023-04-03T13:09:35;12.90;47.40
39525;DHT22;25203;50.754;6.978;2023-04-03T13:11:40;12.80;47.90
39525;DHT22;25203;50.754;6.978;2023-04-03T13:13:57;12.60;48.10
39525;DHT22;25203;50.754;6.978;2023-04-03T13:15:58;12.50;49.00
39525;DHT22;25203;50.754;6.978;2023-04-03T13:17:59;12.60;48.00
39525;DHT22;25203;50.754;6.978;2023-04-03T13:20:10;12.80;49.10
39525;DHT22;25203;50.754;6.978;2023-04-03T13:22:33;12.60;49.00
39525;DHT22;25203;50.754;6.978;2023-04-03T13:24:39;12.30;47.60
39525;DHT22;25203;50.754;6.978;2023-04-03T13:26:40;12.20;48.20
39525;DHT22;25203;50.754;6.978;2023-04-03T13:28:41;12.20;49.40
39525;DHT22;25203;50.754;6.978;2023-04-03T13:31:17;12.40;48.60
39525;DHT22;25203;50.754;6.978;2023-04-03T13:33:22;12.50;48.80
39525;DHT22;25203;50.754;6.978;2023-04-03T13:37:29;12.60;49.30
39525;DHT22;25203;50.754;6.978;2023-04-03T13:39:32;12.60;47.80
39525;DHT22;25203;50.754;6.978;2023-04-03T13:41:39;12.40;47.40
39525;DHT22;25203;50.754;6.978;2023-04-03T13:43:40;12.20;47.20
39525;DHT22;25203;50.754;6.978;2023-04-03T13:46:34;11.90;47.30
39525;DHT22;25203;50.754;6.978;2023-04-03T13:48:19;11.70;49.00
39525;DHT22;25203;50.754;6.978;2023-04-03T13:50:24;11.80;47.20
39525;DHT22;25203;50.754;6.978;2023-04-03T13:54:37;12.20;48.60
39525;DHT22;25203;50.754;6.978;2023-04-03T13:56:38;12.40;47.50
39525;DHT22;25203;50.754;6.978;2023-04-03T13:58:51;12.60;47.90
39525;DHT22;25203;50.754;6.978;2023-04-03T14:00:54;12.40;47.40
39525;DHT22;25203;50.754;6.978;2023-04-03T14:02:56;12.40;48.60
39525;DHT22;25203;50.754;6.978;2023-04-03T14:04:58;12.50;47.90
39525;DHT22;25203;50.754;6.978;2023-04-03T14:07:01;12.80;48.20
39525;DHT22;25203;50.754;6.978;2023-04-03T14:09:02;13.10;48.00
39525;DHT22;25203;50.754;6.978;2023-04-03T14:11:03;13.20;48.60
39525;DHT22;25203;50.754;6.978;2023-04-03T14:13:04;13.20;48.00